THY1KG EDFH-EHRD
Flight info
| Callsign | THY1KG |
|---|---|
| Flight time | 0h 40m |
| Altitude | 24000 |
| Route | RUDOT2S/21 RUDOT Y180 BITBU Y181 DEMUL M624 BUB Y28 HELEN |
| Aircraft | B739/M-SDE2E3FGHIRWXY/LB1 |
Departure
| Time | 2026-05-04 15:04 |
|---|---|
| Airport | Frankfurt-Hahn Airport (EDFH) |
Arrival
| Time | 2026-05-04 15:44 |
|---|---|
| Airport | Rotterdam The Hague Airport (EHRD) |
| Time | Latitude | Longitude | Altitude | Speed | Heading |
|---|---|---|---|---|---|
| 2026-05-04 14:27 | 49.94719 | 7.26881 | 1619 ft | 0 kts | 30° |
| 2026-05-04 14:48 | 49.94713 | 7.26875 | 1619 ft | 3 kts | 25° |
| 2026-05-04 14:49 | 49.94695 | 7.26868 | 1621 ft | 3 kts | 353° |
| 2026-05-04 14:49 | 49.94678 | 7.26877 | 1621 ft | 3 kts | 320° |
| 2026-05-04 14:49 | 49.94665 | 7.26898 | 1623 ft | 3 kts | 305° |
| 2026-05-04 14:49 | 49.94658 | 7.26915 | 1619 ft | 0 kts | 301° |
| 2026-05-04 14:54 | 49.94660 | 7.26909 | 1619 ft | 5 kts | 301° |
| 2026-05-04 14:54 | 49.94673 | 7.26877 | 1624 ft | 0 kts | 301° |
| 2026-05-04 14:57 | 49.94676 | 7.26870 | 1623 ft | 4 kts | 302° |
| 2026-05-04 14:57 | 49.94702 | 7.26805 | 1621 ft | 9 kts | 302° |
| 2026-05-04 14:57 | 49.94758 | 7.26773 | 1619 ft | 10 kts | 26° |
| 2026-05-04 14:57 | 49.94829 | 7.26832 | 1620 ft | 12 kts | 32° |
| 2026-05-04 14:58 | 49.94839 | 7.26841 | 1618 ft | 3 kts | 30° |
| 2026-05-04 14:58 | 49.94871 | 7.26877 | 1617 ft | 8 kts | 33° |
| 2026-05-04 14:58 | 49.94933 | 7.26938 | 1620 ft | 12 kts | 31° |
| 2026-05-04 14:58 | 49.95009 | 7.27011 | 1616 ft | 14 kts | 32° |
| 2026-05-04 14:59 | 49.95092 | 7.27093 | 1615 ft | 14 kts | 33° |
| 2026-05-04 14:59 | 49.95172 | 7.27171 | 1620 ft | 13 kts | 33° |
| 2026-05-04 14:59 | 49.95338 | 7.27334 | 1613 ft | 15 kts | 33° |
| 2026-05-04 15:00 | 49.95426 | 7.27422 | 1616 ft | 14 kts | 33° |
| 2026-05-04 15:00 | 49.95509 | 7.27503 | 1607 ft | 15 kts | 32° |
| 2026-05-04 15:00 | 49.95570 | 7.27548 | 1610 ft | 0 kts | 4° |
| 2026-05-04 15:01 | 49.95587 | 7.27542 | 1605 ft | 8 kts | 341° |
| 2026-05-04 15:01 | 49.95677 | 7.27461 | 1611 ft | 20 kts | 326° |
| 2026-05-04 15:01 | 49.95745 | 7.27366 | 1607 ft | 5 kts | 303° |
| 2026-05-04 15:01 | 49.95749 | 7.27356 | 1612 ft | 0 kts | 302° |
| 2026-05-04 15:02 | 49.95777 | 7.27316 | 1608 ft | 17 kts | 343° |
| 2026-05-04 15:02 | 49.95925 | 7.27445 | 1599 ft | 23 kts | 51° |
| 2026-05-04 15:02 | 49.95971 | 7.27555 | 1598 ft | 1 kts | 28° |
| 2026-05-04 15:02 | 49.96001 | 7.27515 | 1598 ft | 4 kts | 280° |
| 2026-05-04 15:03 | 49.95976 | 7.27481 | 1602 ft | 6 kts | 202° |
| 2026-05-04 15:03 | 49.95963 | 7.27467 | 1599 ft | 0 kts | 214° |
| 2026-05-04 15:03 | 49.95960 | 7.27464 | 1599 ft | 0 kts | 213° |
| 2026-05-04 15:03 | 49.95895 | 7.27397 | 1600 ft | 41 kts | 213° |
| 2026-05-04 15:04 | 49.95420 | 7.26924 | 1611 ft | 119 kts | 211° |
| 2026-05-04 15:04 | 49.94564 | 7.26094 | 1731 ft | 166 kts | 213° |
| 2026-05-04 15:04 | 49.93573 | 7.25148 | 2491 ft | 167 kts | 212° |
| 2026-05-04 15:04 | 49.92575 | 7.24129 | 3230 ft | 170 kts | 215° |
| 2026-05-04 15:05 | 49.91660 | 7.23142 | 3863 ft | 157 kts | 214° |
| 2026-05-04 15:05 | 49.90746 | 7.22185 | 4225 ft | 169 kts | 214° |
| 2026-05-04 15:05 | 49.89702 | 7.21115 | 4463 ft | 191 kts | 213° |
| 2026-05-04 15:05 | 49.88513 | 7.19909 | 4739 ft | 209 kts | 213° |
| 2026-05-04 15:06 | 49.87267 | 7.18655 | 4976 ft | 214 kts | 212° |
| 2026-05-04 15:06 | 49.86043 | 7.17337 | 4995 ft | 217 kts | 222° |
| 2026-05-04 15:06 | 49.85279 | 7.15354 | 4994 ft | 223 kts | 251° |
| 2026-05-04 15:07 | 49.85723 | 7.10561 | 5297 ft | 230 kts | 284° |
| 2026-05-04 15:07 | 49.86287 | 7.08202 | 5637 ft | 238 kts | 285° |
| 2026-05-04 15:07 | 49.86881 | 7.05748 | 5991 ft | 250 kts | 284° |
| 2026-05-04 15:07 | 49.87497 | 7.03185 | 6312 ft | 256 kts | 284° |
| 2026-05-04 15:08 | 49.88112 | 7.00608 | 6590 ft | 253 kts | 283° |
| 2026-05-04 15:08 | 49.88722 | 6.98020 | 6883 ft | 259 kts | 284° |
| 2026-05-04 15:08 | 49.89337 | 6.95393 | 7188 ft | 258 kts | 284° |
| 2026-05-04 15:08 | 49.89948 | 6.92773 | 7514 ft | 255 kts | 284° |
| 2026-05-04 15:09 | 49.90548 | 6.90191 | 7826 ft | 255 kts | 284° |
| 2026-05-04 15:09 | 49.91161 | 6.87519 | 8207 ft | 271 kts | 284° |
| 2026-05-04 15:09 | 49.91809 | 6.84680 | 8577 ft | 288 kts | 284° |
| 2026-05-04 15:10 | 49.93182 | 6.78692 | 9268 ft | 295 kts | 285° |
| 2026-05-04 15:10 | 49.93871 | 6.75690 | 9613 ft | 295 kts | 285° |
| 2026-05-04 15:10 | 49.95237 | 6.69708 | 10260 ft | 297 kts | 285° |
| 2026-05-04 15:11 | 49.95897 | 6.66809 | 10542 ft | 298 kts | 285° |
| 2026-05-04 15:11 | 49.96586 | 6.63773 | 10871 ft | 298 kts | 285° |
| 2026-05-04 15:11 | 49.97277 | 6.60723 | 11198 ft | 300 kts | 285° |
| 2026-05-04 15:11 | 49.97970 | 6.57656 | 11525 ft | 302 kts | 284° |
| 2026-05-04 15:12 | 49.98325 | 6.54465 | 11833 ft | 299 kts | 266° |
| 2026-05-04 15:12 | 49.98236 | 6.51207 | 12207 ft | 304 kts | 263° |
| 2026-05-04 15:12 | 49.98104 | 6.47928 | 12518 ft | 305 kts | 263° |
| 2026-05-04 15:12 | 49.97972 | 6.44646 | 12853 ft | 305 kts | 263° |
| 2026-05-04 15:13 | 49.97846 | 6.41334 | 13181 ft | 309 kts | 264° |
| 2026-05-04 15:13 | 49.97725 | 6.37990 | 13551 ft | 312 kts | 264° |
| 2026-05-04 15:13 | 49.97646 | 6.35736 | 13798 ft | 318 kts | 264° |
| 2026-05-04 15:13 | 49.97484 | 6.31027 | 14224 ft | 335 kts | 264° |
| 2026-05-04 15:14 | 49.97361 | 6.27374 | 14544 ft | 341 kts | 264° |
| 2026-05-04 15:14 | 49.97238 | 6.23693 | 14851 ft | 341 kts | 264° |
| 2026-05-04 15:14 | 49.97156 | 6.21260 | 15063 ft | 340 kts | 264° |
| 2026-05-04 15:14 | 49.97030 | 6.17578 | 15392 ft | 340 kts | 264° |
| 2026-05-04 15:15 | 49.96893 | 6.13903 | 15716 ft | 341 kts | 264° |
| 2026-05-04 15:15 | 49.96687 | 6.08992 | 16151 ft | 346 kts | 263° |
| 2026-05-04 15:15 | 49.96581 | 6.06462 | 16374 ft | 347 kts | 264° |
| 2026-05-04 15:16 | 49.96764 | 5.98968 | 17017 ft | 355 kts | 286° |
| 2026-05-04 15:16 | 49.97871 | 5.95581 | 17360 ft | 362 kts | 305° |
| 2026-05-04 15:16 | 50.01469 | 5.90038 | 18073 ft | 367 kts | 314° |
| 2026-05-04 15:17 | 50.03353 | 5.87316 | 18416 ft | 372 kts | 314° |
| 2026-05-04 15:17 | 50.07159 | 5.81671 | 19178 ft | 383 kts | 313° |
| 2026-05-04 15:17 | 50.09094 | 5.78766 | 19564 ft | 388 kts | 313° |
| 2026-05-04 15:18 | 50.11045 | 5.75828 | 19959 ft | 393 kts | 313° |
| 2026-05-04 15:18 | 50.13008 | 5.72870 | 20404 ft | 395 kts | 313° |
| 2026-05-04 15:18 | 50.15001 | 5.69865 | 20798 ft | 399 kts | 313° |
| 2026-05-04 15:19 | 50.19020 | 5.63795 | 21631 ft | 405 kts | 313° |
| 2026-05-04 15:19 | 50.21053 | 5.60719 | 22044 ft | 407 kts | 313° |
| 2026-05-04 15:19 | 50.25111 | 5.54564 | 22895 ft | 412 kts | 313° |
| 2026-05-04 15:20 | 50.27176 | 5.51428 | 23358 ft | 414 kts | 313° |
| 2026-05-04 15:20 | 50.29255 | 5.48268 | 23767 ft | 418 kts | 313° |
| 2026-05-04 15:20 | 50.31334 | 5.45104 | 23961 ft | 419 kts | 312° |
| 2026-05-04 15:20 | 50.33419 | 5.41929 | 23977 ft | 418 kts | 312° |
| 2026-05-04 15:21 | 50.35514 | 5.38731 | 23999 ft | 421 kts | 312° |
| 2026-05-04 15:21 | 50.37627 | 5.35499 | 24000 ft | 428 kts | 312° |
| 2026-05-04 15:21 | 50.41974 | 5.28836 | 24002 ft | 445 kts | 312° |
| 2026-05-04 15:22 | 50.44203 | 5.25412 | 24003 ft | 452 kts | 313° |
| 2026-05-04 15:22 | 50.46468 | 5.21932 | 24007 ft | 459 kts | 313° |
| 2026-05-04 15:22 | 50.51085 | 5.14823 | 24000 ft | 471 kts | 313° |
| 2026-05-04 15:23 | 50.53437 | 5.11193 | 24007 ft | 474 kts | 313° |
| 2026-05-04 15:23 | 50.55797 | 5.07546 | 23972 ft | 477 kts | 313° |
| 2026-05-04 15:23 | 50.58118 | 5.03957 | 23952 ft | 471 kts | 313° |
| 2026-05-04 15:23 | 50.60414 | 5.00403 | 23659 ft | 452 kts | 313° |
| 2026-05-04 15:24 | 50.64680 | 4.93784 | 23070 ft | 408 kts | 313° |
| 2026-05-04 15:24 | 50.68548 | 4.87764 | 22482 ft | 374 kts | 313° |
| 2026-05-04 15:25 | 50.70368 | 4.84936 | 22208 ft | 362 kts | 313° |
| 2026-05-04 15:25 | 50.72149 | 4.82164 | 21942 ft | 360 kts | 313° |
| 2026-05-04 15:25 | 50.73942 | 4.79368 | 21693 ft | 363 kts | 313° |
| 2026-05-04 15:26 | 50.77537 | 4.73747 | 21179 ft | 358 kts | 313° |
| 2026-05-04 15:26 | 50.79256 | 4.71051 | 20808 ft | 354 kts | 313° |
| 2026-05-04 15:26 | 50.82760 | 4.65539 | 19974 ft | 355 kts | 314° |
| 2026-05-04 15:27 | 50.84508 | 4.62785 | 19553 ft | 354 kts | 314° |
| 2026-05-04 15:27 | 50.87940 | 4.57375 | 18753 ft | 351 kts | 314° |
| 2026-05-04 15:28 | 50.91171 | 4.51717 | 17902 ft | 342 kts | 302° |
| 2026-05-04 15:28 | 50.92290 | 4.48880 | 17507 ft | 339 kts | 300° |
| 2026-05-04 15:28 | 50.94674 | 4.42501 | 16624 ft | 334 kts | 300° |
| 2026-05-04 15:29 | 50.95865 | 4.39334 | 16191 ft | 333 kts | 300° |
| 2026-05-04 15:30 | 51.00616 | 4.26926 | 14494 ft | 323 kts | 301° |
| 2026-05-04 15:30 | 51.04078 | 4.17923 | 13221 ft | 315 kts | 301° |
| 2026-05-04 15:31 | 51.07566 | 4.14227 | 12309 ft | 313 kts | 358° |
| 2026-05-04 15:31 | 51.09687 | 4.14533 | 11919 ft | 311 kts | 11° |
| 2026-05-04 15:32 | 51.16057 | 4.16333 | 11012 ft | 312 kts | 5° |
| 2026-05-04 15:32 | 51.20383 | 4.16836 | 10964 ft | 308 kts | 4° |
| 2026-05-04 15:33 | 51.24629 | 4.17346 | 10971 ft | 307 kts | 4° |
| 2026-05-04 15:34 | 51.31030 | 4.18202 | 10963 ft | 307 kts | 5° |
| 2026-05-04 15:34 | 51.33155 | 4.18497 | 10969 ft | 306 kts | 5° |
| 2026-05-04 15:34 | 51.37402 | 4.19094 | 10971 ft | 306 kts | 5° |
| 2026-05-04 15:35 | 51.41616 | 4.19692 | 10969 ft | 306 kts | 5° |
| 2026-05-04 15:35 | 51.43746 | 4.19994 | 10853 ft | 311 kts | 5° |
| 2026-05-04 15:35 | 51.45935 | 4.20306 | 10321 ft | 315 kts | 5° |
| 2026-05-04 15:36 | 51.50253 | 4.20922 | 9255 ft | 307 kts | 5° |
| 2026-05-04 15:36 | 51.52371 | 4.21224 | 8708 ft | 304 kts | 5° |
| 2026-05-04 15:36 | 51.54476 | 4.21525 | 8173 ft | 301 kts | 5° |
| 2026-05-04 15:37 | 51.56550 | 4.21822 | 7642 ft | 298 kts | 5° |
| 2026-05-04 15:37 | 51.58606 | 4.22117 | 7120 ft | 295 kts | 5° |
| 2026-05-04 15:37 | 51.60639 | 4.22409 | 6614 ft | 293 kts | 5° |
| 2026-05-04 15:37 | 51.62663 | 4.22700 | 6088 ft | 290 kts | 5° |
| 2026-05-04 15:38 | 51.64676 | 4.22989 | 5549 ft | 288 kts | 5° |
| 2026-05-04 15:38 | 51.66636 | 4.23270 | 5033 ft | 287 kts | 5° |
| 2026-05-04 15:38 | 51.68659 | 4.23560 | 4526 ft | 302 kts | 5° |
| 2026-05-04 15:38 | 51.70870 | 4.23879 | 4017 ft | 331 kts | 5° |
| 2026-05-04 15:39 | 51.73194 | 4.24214 | 3483 ft | 337 kts | 5° |
| 2026-05-04 15:39 | 51.75505 | 4.24548 | 2939 ft | 328 kts | 5° |
| 2026-05-04 15:39 | 51.79885 | 4.25205 | 2098 ft | 300 kts | 5° |
| 2026-05-04 15:40 | 51.81888 | 4.25515 | 2006 ft | 279 kts | 5° |
| 2026-05-04 15:40 | 51.83740 | 4.25874 | 1991 ft | 255 kts | 7° |
| 2026-05-04 15:40 | 51.85412 | 4.26239 | 1990 ft | 229 kts | 7° |
| 2026-05-04 15:40 | 51.86889 | 4.26592 | 1970 ft | 198 kts | 7° |
| 2026-05-04 15:41 | 51.88211 | 4.26894 | 1610 ft | 186 kts | 8° |
| 2026-05-04 15:41 | 51.89438 | 4.27414 | 1155 ft | 180 kts | 25° |
| 2026-05-04 15:41 | 51.90150 | 4.28844 | 967 ft | 157 kts | 63° |
| 2026-05-04 15:41 | 51.90533 | 4.30390 | 749 ft | 142 kts | 61° |
| 2026-05-04 15:42 | 51.91004 | 4.31912 | 914 ft | 148 kts | 57° |
| 2026-05-04 15:42 | 51.91527 | 4.33308 | 1148 ft | 149 kts | 54° |
| 2026-05-04 15:42 | 51.92117 | 4.34687 | 1134 ft | 146 kts | 52° |
| 2026-05-04 15:42 | 51.92684 | 4.36072 | 1031 ft | 147 kts | 52° |
| 2026-05-04 15:43 | 51.93181 | 4.37495 | 901 ft | 145 kts | 60° |
| 2026-05-04 15:43 | 51.93646 | 4.38968 | 687 ft | 148 kts | 58° |
| 2026-05-04 15:43 | 51.94172 | 4.40344 | 521 ft | 146 kts | 51° |
| 2026-05-04 15:43 | 51.94737 | 4.41682 | 227 ft | 145 kts | 53° |
| 2026-05-04 15:44 | 51.95275 | 4.43018 | 15 ft | 139 kts | 51° |
| 2026-05-04 15:44 | 51.95634 | 4.43883 | -8 ft | 131 kts | 58° |
| 2026-05-04 15:44 | 51.96026 | 4.44870 | -9 ft | 25 kts | 57° |
| 2026-05-04 15:44 | 51.96114 | 4.45087 | -6 ft | 23 kts | 58° |
| 2026-05-04 15:45 | 51.96146 | 4.45191 | -5 ft | 5 kts | 70° |
| 2026-05-04 15:45 | 51.96152 | 4.45255 | -4 ft | 6 kts | 96° |
| 2026-05-04 15:45 | 51.96129 | 4.45338 | -4 ft | 11 kts | 123° |
| 2026-05-04 15:45 | 51.96066 | 4.45395 | -3 ft | 11 kts | 190° |
| 2026-05-04 15:46 | 51.96006 | 4.45305 | -4 ft | 13 kts | 237° |
| 2026-05-04 15:46 | 51.95955 | 4.45178 | -4 ft | 8 kts | 236° |
| 2026-05-04 15:46 | 51.95920 | 4.45092 | -6 ft | 12 kts | 237° |
| 2026-05-04 15:46 | 51.95865 | 4.44955 | -8 ft | 17 kts | 238° |
| 2026-05-04 15:47 | 51.95858 | 4.44936 | -8 ft | 0 kts | 237° |